Terminal Aerodrome Forecast
Issued by NWS

Home | Current Version | Previous Version | Text Only | Print | Product List | Glossary On
Versions: 1 2 3 4 5 6 7 8 9 10 11 12 13 14 15 16 17 18 19
000
FTUS46 KLOX 061100
TAFPRB
TAF
KPRB 061128Z 0612/0712 29007KT P6SM OVC015
     FM061800 30006KT P6SM FEW015
     FM062000 21008KT P6SM SCT200
     FM062200 20018G26KT P6SM SCT200
     FM070300 21010KT P6SM SKC
     FM070700 29007KT P6SM BKN015=

USA.gov is the U.S. government's official web portal to all federal, state and local government web resources and services.